If you wish to contribute or participate in the discussions about articles you are invited to join SKYbrary as a registered user

 Actions

Dortmund Airport

From SKYbrary Wiki

EDLW
Airport
ICAO: EDLW – IATA: DTM
Summary
Name Dortmund Airport
Region Europe
Territory Germany DE.gif
Location Dortmund, Nordrhein-Westfalen
Serving Dortmund
Elevation 129.54 m
425 ft
425 ft129.54 m
Type large airport
Coordinates 51° 31' 5.93" N, 7° 36' 44.07" E
Runways
Designator Length Width Surface ROPS
6/24 2000 m6,561.68 ft
45 m147.638 ft
ASP yes/yes


METAR
Observation EDLW 220750Z 20008KT 9999 OVC021 12/09 Q1024
Station Dortmund / Wickede
Date/Time 22 October 2019 07:50:00
Wind direction 200°
Wind speed 08 kts
Lowest cloud amount overcast
Temperature 12°C
Dew point 9°C
Humidity 81%
QNH 1024 hPa
Weather condition n/a

Maps

Terrain

Loading map...

Airport Layout

Loading map...


Accidents & Serious Incidents at or in vicinity of EDLW

None on SKYbrary